Terminal Aerodrome Forecast
Issued by NWS Lubbock, TX

Home | Current Version | Previous Version | Text Only | Print | Product List | Glossary On
Versions: 1 2 3 4 5 6 7 8 9 10 11 12
076
FTUS44 KLUB 280520
TAFLBB
TAF
KLBB 280520Z 2806/2906 12011KT P6SM SKC
     FM280800 12011KT P6SM SKC WS020/16040KT
     FM281100 13015KT 4SM BR OVC007
     FM281900 21020G30KT P6SM SCT250=

USA.gov is the U.S. government's official web portal to all federal, state and local government web resources and services.